sensor_id;sensor_type;location;lat;lon;timestamp;P1;durP1;ratioP1;P2;durP2;ratioP2
5452;SDS011;2749;53.576;9.822;2022-10-04T00:00:27;8.60;;;2.77;;
5452;SDS011;2749;53.576;9.822;2022-10-04T00:02:57;7.33;;;3.30;;
5452;SDS011;2749;53.576;9.822;2022-10-04T00:05:25;7.40;;;3.53;;
5452;SDS011;2749;53.576;9.822;2022-10-04T00:07:54;9.10;;;3.13;;
5452;SDS011;2749;53.576;9.822;2022-10-04T00:10:28;6.60;;;2.93;;
5452;SDS011;2749;53.576;9.822;2022-10-04T00:12:55;6.27;;;2.50;;
5452;SDS011;2749;53.576;9.822;2022-10-04T00:15:26;5.27;;;3.73;;
5452;SDS011;2749;53.576;9.822;2022-10-04T00:18:00;7.93;;;2.60;;
5452;SDS011;2749;53.576;9.822;2022-10-04T00:25:56;11.00;;;3.40;;
5452;SDS011;2749;53.576;9.822;2022-10-04T00:33:49;6.77;;;4.13;;
5452;SDS011;2749;53.576;9.822;2022-10-04T00:39:12;9.13;;;4.37;;
5452;SDS011;2749;53.576;9.822;2022-10-04T00:44:04;8.13;;;3.80;;
5452;SDS011;2749;53.576;9.822;2022-10-04T00:46:33;4.60;;;4.20;;
5452;SDS011;2749;53.576;9.822;2022-10-04T00:49:01;7.47;;;4.50;;
5452;SDS011;2749;53.576;9.822;2022-10-04T00:51:40;7.83;;;3.80;;
5452;SDS011;2749;53.576;9.822;2022-10-04T00:54:17;13.10;;;6.20;;
5452;SDS011;2749;53.576;9.822;2022-10-04T00:56:46;10.83;;;5.07;;
5452;SDS011;2749;53.576;9.822;2022-10-04T01:02:44;13.87;;;6.47;;
5452;SDS011;2749;53.576;9.822;2022-10-04T01:04:45;9.93;;;4.97;;
5452;SDS011;2749;53.576;9.822;2022-10-04T01:07:13;10.43;;;4.23;;
5452;SDS011;2749;53.576;9.822;2022-10-04T01:09:45;11.13;;;5.30;;
5452;SDS011;2749;53.576;9.822;2022-10-04T01:12:15;9.40;;;5.30;;
5452;SDS011;2749;53.576;9.822;2022-10-04T01:17:28;8.30;;;4.47;;
5452;SDS011;2749;53.576;9.822;2022-10-04T01:19:54;8.53;;;4.57;;
5452;SDS011;2749;53.576;9.822;2022-10-04T01:22:30;8.70;;;4.47;;
5452;SDS011;2749;53.576;9.822;2022-10-04T01:24:57;10.43;;;5.33;;
5452;SDS011;2749;53.576;9.822;2022-10-04T01:27:39;14.10;;;4.90;;
5452;SDS011;2749;53.576;9.822;2022-10-04T01:30:07;9.47;;;4.90;;
5452;SDS011;2749;53.576;9.822;2022-10-04T01:32:33;14.27;;;6.40;;
5452;SDS011;2749;53.576;9.822;2022-10-04T01:34:59;8.53;;;3.93;;
5452;SDS011;2749;53.576;9.822;2022-10-04T01:37:25;10.60;;;4.93;;
5452;SDS011;2749;53.576;9.822;2022-10-04T01:39:51;7.60;;;4.10;;
5452;SDS011;2749;53.576;9.822;2022-10-04T01:42:19;5.97;;;4.63;;
5452;SDS011;2749;53.576;9.822;2022-10-04T01:47:17;8.67;;;4.37;;
5452;SDS011;2749;53.576;9.822;2022-10-04T01:49:45;12.80;;;4.47;;
5452;SDS011;2749;53.576;9.822;2022-10-04T01:54:41;5.23;;;3.93;;
5452;SDS011;2749;53.576;9.822;2022-10-04T01:57:12;9.33;;;4.53;;
5452;SDS011;2749;53.576;9.822;2022-10-04T01:59:42;5.57;;;3.93;;
5452;SDS011;2749;53.576;9.822;2022-10-04T02:02:14;7.83;;;4.00;;
5452;SDS011;2749;53.576;9.822;2022-10-04T02:04:43;6.27;;;4.57;;
5452;SDS011;2749;53.576;9.822;2022-10-04T02:07:13;16.03;;;5.37;;
5452;SDS011;2749;53.576;9.822;2022-10-04T02:09:41;5.57;;;4.60;;
5452;SDS011;2749;53.576;9.822;2022-10-04T02:12:08;9.77;;;4.17;;
5452;SDS011;2749;53.576;9.822;2022-10-04T02:14:34;9.67;;;4.70;;
5452;SDS011;2749;53.576;9.822;2022-10-04T02:17:02;6.43;;;4.30;;
5452;SDS011;2749;53.576;9.822;2022-10-04T02:19:33;6.97;;;5.43;;
5452;SDS011;2749;53.576;9.822;2022-10-04T02:22:01;4.70;;;3.80;;
5452;SDS011;2749;53.576;9.822;2022-10-04T02:24:28;10.80;;;4.27;;
5452;SDS011;2749;53.576;9.822;2022-10-04T02:26:54;5.27;;;4.40;;
5452;SDS011;2749;53.576;9.822;2022-10-04T02:29:20;5.93;;;3.87;;
5452;SDS011;2749;53.576;9.822;2022-10-04T02:31:47;3.67;;;3.30;;
5452;SDS011;2749;53.576;9.822;2022-10-04T02:34:32;14.73;;;4.07;;
5452;SDS011;2749;53.576;9.822;2022-10-04T02:37:00;8.63;;;3.50;;
5452;SDS011;2749;53.576;9.822;2022-10-04T02:39:29;4.50;;;3.27;;
5452;SDS011;2749;53.576;9.822;2022-10-04T02:41:57;6.33;;;3.50;;
5452;SDS011;2749;53.576;9.822;2022-10-04T02:44:31;8.93;;;3.83;;
5452;SDS011;2749;53.576;9.822;2022-10-04T02:47:13;8.47;;;4.03;;
5452;SDS011;2749;53.576;9.822;2022-10-04T02:49:48;8.97;;;4.10;;
5452;SDS011;2749;53.576;9.822;2022-10-04T02:54:47;9.43;;;3.87;;
5452;SDS011;2749;53.576;9.822;2022-10-04T02:57:15;9.80;;;4.40;;
5452;SDS011;2749;53.576;9.822;2022-10-04T02:59:43;9.10;;;4.47;;
5452;SDS011;2749;53.576;9.822;2022-10-04T03:02:28;11.53;;;4.80;;
5452;SDS011;2749;53.576;9.822;2022-10-04T03:04:55;10.23;;;4.90;;
5452;SDS011;2749;53.576;9.822;2022-10-04T03:07:22;6.37;;;3.90;;
5452;SDS011;2749;53.576;9.822;2022-10-04T03:09:48;8.10;;;4.10;;
5452;SDS011;2749;53.576;9.822;2022-10-04T03:12:14;5.23;;;4.73;;
5452;SDS011;2749;53.576;9.822;2022-10-04T03:14:40;7.83;;;4.60;;
5452;SDS011;2749;53.576;9.822;2022-10-04T03:17:06;6.93;;;3.83;;
5452;SDS011;2749;53.576;9.822;2022-10-04T03:19:33;7.20;;;3.83;;
5452;SDS011;2749;53.576;9.822;2022-10-04T03:22:01;9.33;;;4.03;;
5452;SDS011;2749;53.576;9.822;2022-10-04T03:24:36;6.10;;;4.77;;
5452;SDS011;2749;53.576;9.822;2022-10-04T03:27:05;6.47;;;4.90;;
5452;SDS011;2749;53.576;9.822;2022-10-04T03:29:32;4.83;;;4.20;;
5452;SDS011;2749;53.576;9.822;2022-10-04T03:31:59;7.73;;;4.50;;
5452;SDS011;2749;53.576;9.822;2022-10-04T03:34:38;5.80;;;5.13;;
5452;SDS011;2749;53.576;9.822;2022-10-04T03:37:06;6.00;;;4.93;;
5452;SDS011;2749;53.576;9.822;2022-10-04T03:39:37;8.63;;;5.10;;
5452;SDS011;2749;53.576;9.822;2022-10-04T03:42:08;6.40;;;4.77;;
5452;SDS011;2749;53.576;9.822;2022-10-04T03:44:35;10.20;;;5.53;;
5452;SDS011;2749;53.576;9.822;2022-10-04T03:47:06;9.37;;;5.30;;
5452;SDS011;2749;53.576;9.822;2022-10-04T03:49:32;5.90;;;4.60;;
5452;SDS011;2749;53.576;9.822;2022-10-04T03:52:00;8.77;;;4.87;;
5452;SDS011;2749;53.576;9.822;2022-10-04T03:54:26;5.47;;;4.97;;
5452;SDS011;2749;53.576;9.822;2022-10-04T03:56:53;8.47;;;4.67;;
5452;SDS011;2749;53.576;9.822;2022-10-04T03:59:19;10.40;;;5.83;;
5452;SDS011;2749;53.576;9.822;2022-10-04T04:01:59;8.27;;;5.03;;
5452;SDS011;2749;53.576;9.822;2022-10-04T04:04:32;10.63;;;5.80;;
5452;SDS011;2749;53.576;9.822;2022-10-04T04:07:01;5.57;;;4.97;;
5452;SDS011;2749;53.576;9.822;2022-10-04T04:09:38;8.87;;;6.00;;
5452;SDS011;2749;53.576;9.822;2022-10-04T04:12:12;6.33;;;5.33;;
5452;SDS011;2749;53.576;9.822;2022-10-04T04:14:39;10.57;;;6.13;;
5452;SDS011;2749;53.576;9.822;2022-10-04T04:19:43;8.10;;;5.07;;
5452;SDS011;2749;53.576;9.822;2022-10-04T04:22:11;12.57;;;6.37;;
5452;SDS011;2749;53.576;9.822;2022-10-04T04:24:39;14.23;;;6.00;;
5452;SDS011;2749;53.576;9.822;2022-10-04T04:27:07;10.20;;;5.43;;
5452;SDS011;2749;53.576;9.822;2022-10-04T04:29:42;8.47;;;5.80;;
5452;SDS011;2749;53.576;9.822;2022-10-04T04:32:24;8.70;;;5.80;;
5452;SDS011;2749;53.576;9.822;2022-10-04T04:35:02;9.63;;;7.00;;
5452;SDS011;2749;53.576;9.822;2022-10-04T04:37:36;14.63;;;7.30;;
5452;SDS011;2749;53.576;9.822;2022-10-04T04:40:18;7.13;;;6.30;;
5452;SDS011;2749;53.576;9.822;2022-10-04T04:42:44;8.43;;;6.30;;
5452;SDS011;2749;53.576;9.822;2022-10-04T04:45:32;9.27;;;7.23;;
5452;SDS011;2749;53.576;9.822;2022-10-04T04:47:57;13.97;;;6.40;;
5452;SDS011;2749;53.576;9.822;2022-10-04T04:50:25;9.90;;;6.50;;
5452;SDS011;2749;53.576;9.822;2022-10-04T04:52:56;11.50;;;7.90;;
5452;SDS011;2749;53.576;9.822;2022-10-04T04:55:35;12.50;;;7.77;;
5452;SDS011;2749;53.576;9.822;2022-10-04T04:58:02;10.97;;;9.13;;
5452;SDS011;2749;53.576;9.822;2022-10-04T05:00:29;11.23;;;8.20;;
5452;SDS011;2749;53.576;9.822;2022-10-04T05:02:56;15.17;;;8.43;;
5452;SDS011;2749;53.576;9.822;2022-10-04T05:05:24;14.57;;;9.00;;
5452;SDS011;2749;53.576;9.822;2022-10-04T05:08:03;15.03;;;10.40;;
5452;SDS011;2749;53.576;9.822;2022-10-04T05:10:33;10.70;;;9.37;;
5452;SDS011;2749;53.576;9.822;2022-10-04T05:12:59;14.43;;;10.80;;
5452;SDS011;2749;53.576;9.822;2022-10-04T05:15:36;12.83;;;9.17;;
5452;SDS011;2749;53.576;9.822;2022-10-04T05:21:16;13.50;;;9.33;;
5452;SDS011;2749;53.576;9.822;2022-10-04T05:23:45;13.20;;;9.53;;
5452;SDS011;2749;53.576;9.822;2022-10-04T05:26:11;13.40;;;10.97;;
5452;SDS011;2749;53.576;9.822;2022-10-04T05:28:38;12.20;;;10.17;;
5452;SDS011;2749;53.576;9.822;2022-10-04T05:31:11;10.60;;;8.90;;
5452;SDS011;2749;53.576;9.822;2022-10-04T05:33:45;9.27;;;8.57;;
5452;SDS011;2749;53.576;9.822;2022-10-04T05:38:59;13.63;;;8.70;;
5452;SDS011;2749;53.576;9.822;2022-10-04T05:44:26;16.77;;;10.00;;
5452;SDS011;2749;53.576;9.822;2022-10-04T05:46:56;17.17;;;9.50;;
5452;SDS011;2749;53.576;9.822;2022-10-04T05:49:24;12.03;;;9.30;;
5452;SDS011;2749;53.576;9.822;2022-10-04T05:51:54;11.83;;;8.17;;
5452;SDS011;2749;53.576;9.822;2022-10-04T05:54:22;9.80;;;8.20;;
5452;SDS011;2749;53.576;9.822;2022-10-04T05:56:52;10.70;;;7.53;;
5452;SDS011;2749;53.576;9.822;2022-10-04T06:04:20;12.33;;;7.97;;
5452;SDS011;2749;53.576;9.822;2022-10-04T06:06:50;12.00;;;8.03;;
5452;SDS011;2749;53.576;9.822;2022-10-04T06:17:42;15.20;;;9.10;;
5452;SDS011;2749;53.576;9.822;2022-10-04T06:22:56;9.77;;;8.67;;
5452;SDS011;2749;53.576;9.822;2022-10-04T06:25:28;9.17;;;8.27;;
5452;SDS011;2749;53.576;9.822;2022-10-04T06:27:59;12.10;;;9.50;;
5452;SDS011;2749;53.576;9.822;2022-10-04T06:30:29;11.70;;;8.10;;
5452;SDS011;2749;53.576;9.822;2022-10-04T06:33:04;12.03;;;7.97;;
5452;SDS011;2749;53.576;9.822;2022-10-04T06:35:37;12.93;;;9.70;;
5452;SDS011;2749;53.576;9.822;2022-10-04T06:47:19;12.60;;;9.83;;
5452;SDS011;2749;53.576;9.822;2022-10-04T06:49:13;14.20;;;10.50;;
5452;SDS011;2749;53.576;9.822;2022-10-04T06:57:12;15.43;;;11.03;;
5452;SDS011;2749;53.576;9.822;2022-10-04T06:59:49;14.03;;;10.30;;
5452;SDS011;2749;53.576;9.822;2022-10-04T07:02:23;13.27;;;10.30;;
5452;SDS011;2749;53.576;9.822;2022-10-04T07:04:57;13.07;;;10.80;;
5452;SDS011;2749;53.576;9.822;2022-10-04T07:12:52;15.20;;;10.77;;
5452;SDS011;2749;53.576;9.822;2022-10-04T07:15:22;13.53;;;10.33;;
5452;SDS011;2749;53.576;9.822;2022-10-04T07:17:50;15.80;;;11.30;;
5452;SDS011;2749;53.576;9.822;2022-10-04T07:20:20;12.90;;;10.57;;
5452;SDS011;2749;53.576;9.822;2022-10-04T07:22:49;14.40;;;9.77;;
5452;SDS011;2749;53.576;9.822;2022-10-04T07:25:20;12.83;;;10.03;;
5452;SDS011;2749;53.576;9.822;2022-10-04T07:30:16;19.00;;;11.50;;
5452;SDS011;2749;53.576;9.822;2022-10-04T07:32:45;17.03;;;9.80;;
5452;SDS011;2749;53.576;9.822;2022-10-04T07:35:14;14.27;;;10.30;;
5452;SDS011;2749;53.576;9.822;2022-10-04T07:42:47;11.67;;;10.57;;
5452;SDS011;2749;53.576;9.822;2022-10-04T07:45:27;13.80;;;10.50;;
5452;SDS011;2749;53.576;9.822;2022-10-04T07:48:04;16.20;;;10.37;;
5452;SDS011;2749;53.576;9.822;2022-10-04T07:50:37;14.20;;;11.40;;
5452;SDS011;2749;53.576;9.822;2022-10-04T08:00:59;13.03;;;10.83;;
5452;SDS011;2749;53.576;9.822;2022-10-04T08:03:33;13.53;;;11.13;;
5452;SDS011;2749;53.576;9.822;2022-10-04T08:11:21;13.87;;;11.03;;
5452;SDS011;2749;53.576;9.822;2022-10-04T08:21:41;19.70;;;12.70;;
5452;SDS011;2749;53.576;9.822;2022-10-04T08:27:00;14.30;;;9.63;;
5452;SDS011;2749;53.576;9.822;2022-10-04T08:29:35;15.80;;;11.87;;
5452;SDS011;2749;53.576;9.822;2022-10-04T08:32:20;14.50;;;11.33;;
5452;SDS011;2749;53.576;9.822;2022-10-04T08:34:52;13.17;;;11.60;;
5452;SDS011;2749;53.576;9.822;2022-10-04T08:37:34;14.53;;;10.33;;
5452;SDS011;2749;53.576;9.822;2022-10-04T08:40:23;15.13;;;11.13;;
5452;SDS011;2749;53.576;9.822;2022-10-04T08:43:08;14.90;;;11.10;;
5452;SDS011;2749;53.576;9.822;2022-10-04T08:45:47;14.60;;;11.43;;
5452;SDS011;2749;53.576;9.822;2022-10-04T09:01:37;13.33;;;9.27;;
5452;SDS011;2749;53.576;9.822;2022-10-04T09:06:58;18.63;;;11.67;;
5452;SDS011;2749;53.576;9.822;2022-10-04T09:09:31;11.93;;;10.50;;
5452;SDS011;2749;53.576;9.822;2022-10-04T09:20:16;11.70;;;9.80;;
5452;SDS011;2749;53.576;9.822;2022-10-04T09:28:16;15.00;;;9.80;;
5452;SDS011;2749;53.576;9.822;2022-10-04T09:30:41;10.83;;;8.20;;
5452;SDS011;2749;53.576;9.822;2022-10-04T09:38:19;9.60;;;8.60;;
5452;SDS011;2749;53.576;9.822;2022-10-04T09:41:00;11.07;;;8.27;;
5452;SDS011;2749;53.576;9.822;2022-10-04T09:46:46;13.13;;;9.07;;
5452;SDS011;2749;53.576;9.822;2022-10-04T09:57:23;12.07;;;9.43;;
5452;SDS011;2749;53.576;9.822;2022-10-04T09:59:56;18.47;;;9.87;;
5452;SDS011;2749;53.576;9.822;2022-10-04T10:05:12;8.83;;;7.73;;
5452;SDS011;2749;53.576;9.822;2022-10-04T10:07:46;14.27;;;9.97;;
5452;SDS011;2749;53.576;9.822;2022-10-04T10:10:18;9.90;;;8.30;;
5452;SDS011;2749;53.576;9.822;2022-10-04T10:13:22;16.90;;;8.13;;
5452;SDS011;2749;53.576;9.822;2022-10-04T10:16:05;12.27;;;9.20;;
5452;SDS011;2749;53.576;9.822;2022-10-04T10:21:15;15.83;;;8.83;;
5452;SDS011;2749;53.576;9.822;2022-10-04T10:23:48;12.07;;;8.40;;
5452;SDS011;2749;53.576;9.822;2022-10-04T10:29:20;11.03;;;7.87;;
5452;SDS011;2749;53.576;9.822;2022-10-04T10:37:06;17.93;;;9.90;;
5452;SDS011;2749;53.576;9.822;2022-10-04T10:39:42;12.30;;;8.50;;
5452;SDS011;2749;53.576;9.822;2022-10-04T10:42:20;15.63;;;9.70;;
5452;SDS011;2749;53.576;9.822;2022-10-04T10:45:00;7.33;;;6.63;;
5452;SDS011;2749;53.576;9.822;2022-10-04T10:47:36;11.43;;;7.17;;
5452;SDS011;2749;53.576;9.822;2022-10-04T10:55:28;10.73;;;6.40;;
5452;SDS011;2749;53.576;9.822;2022-10-04T10:58:07;9.23;;;7.50;;
5452;SDS011;2749;53.576;9.822;2022-10-04T11:03:20;5.67;;;5.17;;
5452;SDS011;2749;53.576;9.822;2022-10-04T11:06:00;9.47;;;6.33;;
5452;SDS011;2749;53.576;9.822;2022-10-04T11:08:58;11.63;;;7.50;;
5452;SDS011;2749;53.576;9.822;2022-10-04T11:14:27;10.83;;;5.87;;
5452;SDS011;2749;53.576;9.822;2022-10-04T11:19:43;10.83;;;7.33;;
5452;SDS011;2749;53.576;9.822;2022-10-04T11:27:38;11.10;;;5.27;;
5452;SDS011;2749;53.576;9.822;2022-10-04T11:32:53;13.20;;;5.33;;
5452;SDS011;2749;53.576;9.822;2022-10-04T11:37:58;5.30;;;3.90;;
5452;SDS011;2749;53.576;9.822;2022-10-04T11:40:50;7.87;;;5.17;;
5452;SDS011;2749;53.576;9.822;2022-10-04T11:45:52;9.57;;;4.97;;
5452;SDS011;2749;53.576;9.822;2022-10-04T11:56:20;6.37;;;2.80;;
5452;SDS011;2749;53.576;9.822;2022-10-04T11:59:08;6.27;;;3.17;;
5452;SDS011;2749;53.576;9.822;2022-10-04T12:04:11;13.10;;;4.70;;
5452;SDS011;2749;53.576;9.822;2022-10-04T12:09:33;12.00;;;4.33;;
5452;SDS011;2749;53.576;9.822;2022-10-04T12:12:23;6.40;;;3.47;;
5452;SDS011;2749;53.576;9.822;2022-10-04T12:17:48;5.10;;;3.17;;
5452;SDS011;2749;53.576;9.822;2022-10-04T12:20:28;12.70;;;3.77;;
5452;SDS011;2749;53.576;9.822;2022-10-04T12:44:01;4.57;;;3.10;;
5452;SDS011;2749;53.576;9.822;2022-10-04T12:46:35;8.03;;;4.10;;
5452;SDS011;2749;53.576;9.822;2022-10-04T12:49:11;5.93;;;3.20;;
5452;SDS011;2749;53.576;9.822;2022-10-04T12:56:56;8.40;;;3.37;;
5452;SDS011;2749;53.576;9.822;2022-10-04T12:59:50;7.10;;;3.17;;
5452;SDS011;2749;53.576;9.822;2022-10-04T13:04:53;6.03;;;2.93;;
5452;SDS011;2749;53.576;9.822;2022-10-04T13:12:37;4.53;;;2.60;;
5452;SDS011;2749;53.576;9.822;2022-10-04T13:15:27;5.60;;;3.30;;
5452;SDS011;2749;53.576;9.822;2022-10-04T13:18:01;12.13;;;3.43;;
5452;SDS011;2749;53.576;9.822;2022-10-04T13:20:38;8.60;;;3.40;;
5452;SDS011;2749;53.576;9.822;2022-10-04T13:23:20;5.10;;;2.90;;
5452;SDS011;2749;53.576;9.822;2022-10-04T13:25:57;5.70;;;2.50;;
5452;SDS011;2749;53.576;9.822;2022-10-04T13:28:28;6.43;;;2.93;;
5452;SDS011;2749;53.576;9.822;2022-10-04T13:30:58;11.00;;;3.63;;
5452;SDS011;2749;53.576;9.822;2022-10-04T13:36:19;6.27;;;2.67;;
5452;SDS011;2749;53.576;9.822;2022-10-04T13:41:40;8.30;;;3.67;;
5452;SDS011;2749;53.576;9.822;2022-10-04T13:49:47;8.00;;;3.27;;
5452;SDS011;2749;53.576;9.822;2022-10-04T13:55:25;4.83;;;4.33;;
5452;SDS011;2749;53.576;9.822;2022-10-04T14:06:29;4.50;;;2.47;;
5452;SDS011;2749;53.576;9.822;2022-10-04T14:09:09;6.27;;;2.93;;
5452;SDS011;2749;53.576;9.822;2022-10-04T14:19:45;9.87;;;2.97;;
5452;SDS011;2749;53.576;9.822;2022-10-04T14:22:17;4.93;;;3.23;;
5452;SDS011;2749;53.576;9.822;2022-10-04T14:30:03;10.43;;;3.33;;
5452;SDS011;2749;53.576;9.822;2022-10-04T14:35:02;4.53;;;3.17;;
5452;SDS011;2749;53.576;9.822;2022-10-04T14:37:37;4.80;;;3.57;;
5452;SDS011;2749;53.576;9.822;2022-10-04T14:40:26;5.23;;;2.43;;
5452;SDS011;2749;53.576;9.822;2022-10-04T14:49:35;4.00;;;2.70;;
5452;SDS011;2749;53.576;9.822;2022-10-04T14:54:10;6.93;;;3.10;;
5452;SDS011;2749;53.576;9.822;2022-10-04T14:56:43;6.23;;;3.43;;
5452;SDS011;2749;53.576;9.822;2022-10-04T15:02:27;7.80;;;5.13;;
5452;SDS011;2749;53.576;9.822;2022-10-04T15:06:57;4.80;;;3.40;;
5452;SDS011;2749;53.576;9.822;2022-10-04T15:09:26;4.87;;;3.10;;
5452;SDS011;2749;53.576;9.822;2022-10-04T15:11:56;4.90;;;3.10;;
5452;SDS011;2749;53.576;9.822;2022-10-04T15:14:29;3.53;;;3.23;;
5452;SDS011;2749;53.576;9.822;2022-10-04T15:16:58;4.50;;;2.73;;
5452;SDS011;2749;53.576;9.822;2022-10-04T15:19:26;3.10;;;2.80;;
5452;SDS011;2749;53.576;9.822;2022-10-04T15:24:42;4.47;;;3.03;;
5452;SDS011;2749;53.576;9.822;2022-10-04T15:35:35;5.27;;;3.63;;
5452;SDS011;2749;53.576;9.822;2022-10-04T15:41:05;6.93;;;3.77;;
5452;SDS011;2749;53.576;9.822;2022-10-04T15:51:40;6.93;;;4.07;;
5452;SDS011;2749;53.576;9.822;2022-10-04T16:06:51;6.03;;;3.20;;
5452;SDS011;2749;53.576;9.822;2022-10-04T16:12:27;8.60;;;4.10;;
5452;SDS011;2749;53.576;9.822;2022-10-04T16:14:57;7.10;;;5.03;;
5452;SDS011;2749;53.576;9.822;2022-10-04T16:22:34;5.37;;;4.87;;
5452;SDS011;2749;53.576;9.822;2022-10-04T16:35:33;4.93;;;3.90;;
5452;SDS011;2749;53.576;9.822;2022-10-04T16:40:32;4.83;;;3.53;;
5452;SDS011;2749;53.576;9.822;2022-10-04T16:45:42;7.67;;;4.70;;
5452;SDS011;2749;53.576;9.822;2022-10-04T16:50:58;5.43;;;4.50;;
5452;SDS011;2749;53.576;9.822;2022-10-04T16:56:16;4.50;;;4.10;;
5452;SDS011;2749;53.576;9.822;2022-10-04T16:58:50;4.90;;;3.80;;
5452;SDS011;2749;53.576;9.822;2022-10-04T17:09:10;6.90;;;4.60;;
5452;SDS011;2749;53.576;9.822;2022-10-04T17:11:42;3.87;;;3.53;;
5452;SDS011;2749;53.576;9.822;2022-10-04T17:14:28;5.00;;;4.40;;
5452;SDS011;2749;53.576;9.822;2022-10-04T17:16:58;5.30;;;3.83;;
5452;SDS011;2749;53.576;9.822;2022-10-04T17:19:33;4.63;;;4.23;;
5452;SDS011;2749;53.576;9.822;2022-10-04T17:27:02;5.07;;;3.67;;
5452;SDS011;2749;53.576;9.822;2022-10-04T17:29:56;4.67;;;4.20;;
5452;SDS011;2749;53.576;9.822;2022-10-04T17:32:30;3.73;;;3.40;;
5452;SDS011;2749;53.576;9.822;2022-10-04T17:35:03;6.50;;;4.10;;
5452;SDS011;2749;53.576;9.822;2022-10-04T17:37:43;7.73;;;4.53;;
5452;SDS011;2749;53.576;9.822;2022-10-04T17:45:19;9.20;;;4.07;;
5452;SDS011;2749;53.576;9.822;2022-10-04T17:47:53;6.60;;;4.17;;
5452;SDS011;2749;53.576;9.822;2022-10-04T17:50:43;11.67;;;5.77;;
5452;SDS011;2749;53.576;9.822;2022-10-04T17:53:29;5.27;;;4.10;;
5452;SDS011;2749;53.576;9.822;2022-10-04T17:56:20;4.93;;;4.43;;
5452;SDS011;2749;53.576;9.822;2022-10-04T17:58:50;6.93;;;5.60;;
5452;SDS011;2749;53.576;9.822;2022-10-04T18:06:33;6.83;;;4.97;;
5452;SDS011;2749;53.576;9.822;2022-10-04T18:09:03;9.57;;;6.30;;
5452;SDS011;2749;53.576;9.822;2022-10-04T18:11:40;6.80;;;5.20;;
5452;SDS011;2749;53.576;9.822;2022-10-04T18:14:19;10.33;;;5.50;;
5452;SDS011;2749;53.576;9.822;2022-10-04T18:16:53;5.97;;;5.37;;
5452;SDS011;2749;53.576;9.822;2022-10-04T18:19:40;8.20;;;6.13;;
5452;SDS011;2749;53.576;9.822;2022-10-04T18:22:10;8.73;;;6.00;;
5452;SDS011;2749;53.576;9.822;2022-10-04T18:24:38;6.50;;;5.37;;
5452;SDS011;2749;53.576;9.822;2022-10-04T18:27:45;7.57;;;6.47;;
5452;SDS011;2749;53.576;9.822;2022-10-04T18:34:53;14.03;;;7.33;;
5452;SDS011;2749;53.576;9.822;2022-10-04T18:37:32;7.67;;;7.00;;
5452;SDS011;2749;53.576;9.822;2022-10-04T18:40:05;9.33;;;7.70;;
5452;SDS011;2749;53.576;9.822;2022-10-04T18:42:40;7.20;;;6.20;;
5452;SDS011;2749;53.576;9.822;2022-10-04T18:45:48;7.43;;;6.70;;
5452;SDS011;2749;53.576;9.822;2022-10-04T18:47:56;12.83;;;7.70;;
5452;SDS011;2749;53.576;9.822;2022-10-04T18:50:36;9.53;;;6.57;;
5452;SDS011;2749;53.576;9.822;2022-10-04T18:53:11;8.27;;;7.00;;
5452;SDS011;2749;53.576;9.822;2022-10-04T19:07:04;10.63;;;5.90;;
5452;SDS011;2749;53.576;9.822;2022-10-04T19:09:50;5.23;;;4.73;;
5452;SDS011;2749;53.576;9.822;2022-10-04T19:12:20;7.87;;;5.90;;
5452;SDS011;2749;53.576;9.822;2022-10-04T19:17:40;8.50;;;6.60;;
5452;SDS011;2749;53.576;9.822;2022-10-04T19:20:15;9.90;;;6.70;;
5452;SDS011;2749;53.576;9.822;2022-10-04T19:25:10;15.83;;;9.17;;
5452;SDS011;2749;53.576;9.822;2022-10-04T19:27:41;9.30;;;6.93;;
5452;SDS011;2749;53.576;9.822;2022-10-04T19:35:13;9.43;;;5.90;;
5452;SDS011;2749;53.576;9.822;2022-10-04T19:40:18;9.13;;;6.80;;
5452;SDS011;2749;53.576;9.822;2022-10-04T19:43:21;6.13;;;5.57;;
5452;SDS011;2749;53.576;9.822;2022-10-04T19:48:25;11.40;;;6.80;;
5452;SDS011;2749;53.576;9.822;2022-10-04T19:50:54;9.40;;;5.90;;
5452;SDS011;2749;53.576;9.822;2022-10-04T19:53:26;7.63;;;6.53;;
5452;SDS011;2749;53.576;9.822;2022-10-04T19:55:55;6.33;;;5.20;;
5452;SDS011;2749;53.576;9.822;2022-10-04T20:01:11;6.25;;;5.70;;
5452;SDS011;2749;53.576;9.822;2022-10-04T20:03:37;7.20;;;6.53;;
5452;SDS011;2749;53.576;9.822;2022-10-04T20:06:03;9.97;;;6.13;;
5452;SDS011;2749;53.576;9.822;2022-10-04T20:11:27;6.80;;;5.40;;
5452;SDS011;2749;53.576;9.822;2022-10-04T20:19:58;9.63;;;6.90;;
5452;SDS011;2749;53.576;9.822;2022-10-04T20:27:04;10.27;;;7.17;;
5452;SDS011;2749;53.576;9.822;2022-10-04T20:32:03;7.73;;;6.63;;
5452;SDS011;2749;53.576;9.822;2022-10-04T20:34:31;7.67;;;6.97;;
5452;SDS011;2749;53.576;9.822;2022-10-04T20:36:58;8.73;;;6.77;;
5452;SDS011;2749;53.576;9.822;2022-10-04T20:47:24;11.77;;;6.80;;
5452;SDS011;2749;53.576;9.822;2022-10-04T20:49:53;8.23;;;7.27;;
5452;SDS011;2749;53.576;9.822;2022-10-04T20:52:26;8.17;;;7.00;;
5452;SDS011;2749;53.576;9.822;2022-10-04T20:54:53;9.93;;;7.20;;
5452;SDS011;2749;53.576;9.822;2022-10-04T20:57:21;6.83;;;6.17;;
5452;SDS011;2749;53.576;9.822;2022-10-04T20:59:48;9.53;;;8.50;;
5452;SDS011;2749;53.576;9.822;2022-10-04T21:02:15;11.70;;;7.80;;
5452;SDS011;2749;53.576;9.822;2022-10-04T21:04:42;8.77;;;6.13;;
5452;SDS011;2749;53.576;9.822;2022-10-04T21:07:15;7.80;;;6.77;;
5452;SDS011;2749;53.576;9.822;2022-10-04T21:09:41;7.27;;;6.67;;
5452;SDS011;2749;53.576;9.822;2022-10-04T21:15:02;6.83;;;6.00;;
5452;SDS011;2749;53.576;9.822;2022-10-04T21:19:55;11.70;;;5.53;;
5452;SDS011;2749;53.576;9.822;2022-10-04T21:27:29;8.40;;;7.60;;
5452;SDS011;2749;53.576;9.822;2022-10-04T21:29:56;29.20;;;7.30;;
5452;SDS011;2749;53.576;9.822;2022-10-04T21:32:22;9.73;;;6.73;;
5452;SDS011;2749;53.576;9.822;2022-10-04T21:34:48;8.50;;;7.70;;
5452;SDS011;2749;53.576;9.822;2022-10-04T21:37:14;8.03;;;7.33;;
5452;SDS011;2749;53.576;9.822;2022-10-04T21:39:40;7.70;;;7.00;;
5452;SDS011;2749;53.576;9.822;2022-10-04T21:42:06;11.90;;;6.73;;
5452;SDS011;2749;53.576;9.822;2022-10-04T21:44:32;7.63;;;6.23;;
5452;SDS011;2749;53.576;9.822;2022-10-04T21:46:58;7.10;;;6.40;;
5452;SDS011;2749;53.576;9.822;2022-10-04T21:49:24;7.27;;;6.53;;
5452;SDS011;2749;53.576;9.822;2022-10-04T21:51:50;9.90;;;6.67;;
5452;SDS011;2749;53.576;9.822;2022-10-04T21:54:16;7.73;;;6.47;;
5452;SDS011;2749;53.576;9.822;2022-10-04T21:56:42;9.50;;;7.77;;
5452;SDS011;2749;53.576;9.822;2022-10-04T21:59:08;7.50;;;6.10;;
5452;SDS011;2749;53.576;9.822;2022-10-04T22:01:34;14.00;;;6.23;;
5452;SDS011;2749;53.576;9.822;2022-10-04T22:04:00;9.20;;;6.27;;
5452;SDS011;2749;53.576;9.822;2022-10-04T22:06:26;9.57;;;6.70;;
5452;SDS011;2749;53.576;9.822;2022-10-04T22:08:52;9.03;;;6.40;;
5452;SDS011;2749;53.576;9.822;2022-10-04T22:11:18;6.43;;;5.70;;
5452;SDS011;2749;53.576;9.822;2022-10-04T22:13:43;11.53;;;6.80;;
5452;SDS011;2749;53.576;9.822;2022-10-04T22:16:10;18.63;;;6.50;;
5452;SDS011;2749;53.576;9.822;2022-10-04T22:18:36;10.27;;;6.87;;
5452;SDS011;2749;53.576;9.822;2022-10-04T22:21:03;10.10;;;7.10;;
5452;SDS011;2749;53.576;9.822;2022-10-04T22:23:30;8.27;;;6.73;;
5452;SDS011;2749;53.576;9.822;2022-10-04T22:26:04;7.17;;;6.00;;
5452;SDS011;2749;53.576;9.822;2022-10-04T22:28:31;14.90;;;7.77;;
5452;SDS011;2749;53.576;9.822;2022-10-04T22:30:57;9.50;;;8.10;;
5452;SDS011;2749;53.576;9.822;2022-10-04T22:33:37;9.13;;;7.00;;
5452;SDS011;2749;53.576;9.822;2022-10-04T22:38:41;8.70;;;7.50;;
5452;SDS011;2749;53.576;9.822;2022-10-04T22:41:09;11.87;;;9.77;;
5452;SDS011;2749;53.576;9.822;2022-10-04T22:43:36;7.43;;;6.73;;
5452;SDS011;2749;53.576;9.822;2022-10-04T22:46:02;10.43;;;7.23;;
5452;SDS011;2749;53.576;9.822;2022-10-04T22:48:28;6.67;;;6.07;;
5452;SDS011;2749;53.576;9.822;2022-10-04T22:50:54;7.10;;;6.50;;
5452;SDS011;2749;53.576;9.822;2022-10-04T22:53:20;8.20;;;6.23;;
5452;SDS011;2749;53.576;9.822;2022-10-04T22:55:50;7.17;;;6.53;;
5452;SDS011;2749;53.576;9.822;2022-10-04T22:58:16;8.00;;;6.40;;
5452;SDS011;2749;53.576;9.822;2022-10-04T23:00:42;10.30;;;8.30;;
5452;SDS011;2749;53.576;9.822;2022-10-04T23:03:16;9.40;;;7.43;;
5452;SDS011;2749;53.576;9.822;2022-10-04T23:05:42;11.23;;;6.60;;
5452;SDS011;2749;53.576;9.822;2022-10-04T23:08:09;8.10;;;7.30;;
5452;SDS011;2749;53.576;9.822;2022-10-04T23:10:35;13.40;;;7.90;;